createdAt,value
2019-05-26T00:06:49.351Z,9.10
2019-05-26T00:09:18.248Z,9.20
2019-05-26T00:11:59.339Z,9.10
2019-05-26T00:14:28.175Z,9.20
2019-05-26T00:16:57.509Z,9.10
2019-05-26T00:22:00.014Z,9.20
2019-05-26T00:24:28.735Z,9.20
2019-05-26T00:26:58.640Z,9.20
2019-05-26T00:29:27.390Z,9.20
2019-05-26T00:31:57.239Z,9.20
2019-05-26T00:34:26.061Z,9.20
2019-05-26T00:39:40.583Z,9.20
2019-05-26T00:42:15.640Z,9.20
2019-05-26T00:44:44.471Z,9.20
2019-05-26T00:47:13.267Z,9.10
2019-05-26T00:49:42.092Z,9.10
2019-05-26T00:52:26.016Z,9.00
2019-05-26T00:54:54.851Z,8.90
2019-05-26T00:57:27.654Z,8.90
2019-05-26T00:59:56.483Z,8.90
2019-05-26T01:02:25.256Z,8.90
2019-05-26T01:08:07.562Z,9.00
2019-05-26T01:10:37.298Z,9.10
2019-05-26T01:13:06.992Z,9.00
2019-05-26T01:15:35.804Z,9.00
2019-05-26T01:18:05.487Z,9.00
2019-05-26T01:20:34.294Z,9.10
2019-05-26T01:23:05.846Z,9.10
2019-05-26T01:25:34.621Z,9.10
2019-05-26T01:28:03.453Z,9.10
2019-05-26T01:33:39.818Z,9.20
2019-05-26T01:36:08.602Z,9.20
2019-05-26T01:38:51.778Z,9.20
2019-05-26T01:41:20.589Z,9.20
2019-05-26T01:43:57.501Z,9.20
2019-05-26T01:46:26.281Z,9.20
2019-05-26T01:48:55.189Z,9.20
2019-05-26T01:51:23.992Z,9.20
2019-05-26T01:54:02.365Z,9.20
2019-05-26T01:56:31.135Z,9.20
2019-05-26T01:58:59.926Z,9.20
2019-05-26T02:01:28.750Z,9.20
2019-05-26T02:04:10.968Z,9.20
2019-05-26T02:06:39.779Z,9.30
2019-05-26T02:09:23.795Z,9.40
2019-05-26T02:11:52.575Z,9.40
2019-05-26T02:14:32.624Z,9.40
2019-05-26T02:17:01.542Z,9.40
2019-05-26T02:22:45.567Z,9.40
2019-05-26T02:25:14.782Z,9.40
2019-05-26T02:27:49.649Z,9.40
2019-05-26T02:30:18.581Z,9.40
2019-05-26T02:32:48.546Z,9.40
2019-05-26T02:35:24.958Z,9.40
2019-05-26T02:37:53.823Z,9.30
2019-05-26T02:40:26.667Z,9.30
2019-05-26T02:42:55.463Z,9.30
2019-05-26T02:45:24.865Z,9.40
2019-05-26T02:51:09.235Z,9.40
2019-05-26T02:56:19.388Z,9.40
2019-05-26T02:58:48.215Z,9.50
2019-05-26T03:01:17.016Z,9.50
2019-05-26T03:03:53.951Z,9.50
2019-05-26T03:11:56.685Z,9.50
2019-05-26T03:14:58.364Z,9.40
2019-05-26T03:17:28.611Z,9.50
2019-05-26T03:20:06.222Z,9.50
2019-05-26T03:22:36.700Z,9.60
2019-05-26T03:25:26.320Z,9.50
2019-05-26T03:27:55.095Z,9.50
2019-05-26T03:30:29.676Z,9.60
2019-05-26T03:32:58.487Z,9.60
2019-05-26T03:36:00.605Z,9.60
2019-05-26T03:38:29.363Z,9.60
2019-05-26T03:40:58.189Z,9.60
2019-05-26T03:43:26.972Z,9.70
2019-05-26T03:46:10.672Z,9.70
2019-05-26T03:48:39.426Z,9.80
2019-05-26T03:51:08.318Z,9.80
2019-05-26T03:53:37.105Z,9.90
2019-05-26T03:56:05.970Z,9.90
2019-05-26T03:58:34.765Z,10.00
2019-05-26T04:01:04.555Z,10.10
2019-05-26T04:03:33.371Z,10.10
2019-05-26T04:06:07.255Z,10.10
2019-05-26T04:08:36.171Z,10.20
2019-05-26T04:11:06.208Z,10.30
2019-05-26T04:16:37.437Z,10.30
2019-05-26T04:19:06.348Z,10.30
2019-05-26T04:21:36.115Z,10.40
2019-05-26T04:24:05.030Z,10.40
2019-05-26T04:29:54.505Z,10.50
2019-05-26T04:32:23.341Z,10.60
2019-05-26T04:34:55.722Z,10.60
2019-05-26T04:37:24.520Z,10.70
2019-05-26T04:43:07.746Z,10.80
2019-05-26T04:45:36.611Z,10.80
2019-05-26T04:51:12.089Z,11.00
2019-05-26T04:53:40.971Z,11.00
2019-05-26T04:56:48.793Z,11.20
2019-05-26T04:59:17.684Z,11.20
2019-05-26T05:01:46.652Z,11.40
2019-05-26T05:04:15.560Z,11.40
2019-05-26T05:06:56.422Z,11.50
2019-05-26T05:09:25.241Z,11.60
2019-05-26T05:11:54.100Z,11.80
2019-05-26T05:14:22.963Z,11.80
2019-05-26T05:17:00.366Z,11.90
2019-05-26T05:19:29.010Z,12.00
2019-05-26T05:21:58.989Z,12.00
2019-05-26T05:24:27.773Z,12.10
2019-05-26T05:27:01.067Z,12.10
2019-05-26T05:29:32.066Z,12.20
2019-05-26T05:32:00.846Z,12.20
2019-05-26T05:34:31.730Z,12.30
2019-05-26T05:37:00.568Z,12.40
2019-05-26T05:39:30.540Z,12.40
2019-05-26T05:42:18.595Z,12.40
2019-05-26T05:44:47.553Z,12.50
2019-05-26T05:47:16.360Z,12.70
2019-05-26T05:50:08.254Z,12.70
2019-05-26T05:52:37.062Z,12.80
2019-05-26T05:55:09.408Z,13.00
2019-05-26T05:57:38.257Z,13.10
2019-05-26T06:00:08.695Z,13.20
2019-05-26T06:02:37.505Z,13.30
2019-05-26T06:05:15.404Z,13.30
2019-05-26T06:07:44.198Z,13.40
2019-05-26T06:10:17.878Z,13.40
2019-05-26T06:12:46.699Z,13.40
2019-05-26T06:15:18.722Z,13.50
2019-05-26T06:17:47.553Z,13.50
2019-05-26T06:23:20.378Z,13.70
2019-05-26T06:25:49.317Z,13.80
2019-05-26T06:28:18.146Z,13.80
2019-05-26T06:30:52.808Z,13.90
2019-05-26T06:33:21.605Z,14.00
2019-05-26T06:35:50.457Z,14.00
2019-05-26T06:38:25.409Z,14.10
2019-05-26T06:40:54.392Z,14.10
2019-05-26T06:43:23.250Z,14.10
2019-05-26T06:45:52.131Z,14.20
2019-05-26T06:48:29.321Z,14.10
2019-05-26T06:50:58.163Z,14.10
2019-05-26T06:53:45.458Z,14.20
2019-05-26T06:56:14.309Z,14.30
2019-05-26T06:58:43.313Z,14.50
2019-05-26T07:02:06.654Z,14.50
2019-05-26T07:04:35.475Z,14.70
2019-05-26T07:07:13.381Z,14.80
2019-05-26T07:09:42.275Z,14.90
2019-05-26T07:12:11.122Z,15.10
2019-05-26T07:14:46.281Z,15.20
2019-05-26T07:17:15.098Z,15.20
2019-05-26T07:19:44.001Z,15.10
2019-05-26T07:22:12.825Z,15.20
2019-05-26T07:24:41.616Z,15.20
2019-05-26T07:27:16.593Z,15.20
2019-05-26T07:29:45.450Z,15.30
2019-05-26T07:35:33.511Z,15.40
2019-05-26T07:38:02.350Z,15.60
2019-05-26T07:40:43.430Z,15.60
2019-05-26T07:43:12.213Z,15.60
2019-05-26T07:45:41.047Z,15.50
2019-05-26T07:48:11.939Z,15.60
2019-05-26T07:50:40.755Z,15.50
2019-05-26T07:53:18.863Z,15.50
2019-05-26T07:56:06.958Z,15.70
2019-05-26T07:58:35.806Z,16.00
2019-05-26T08:01:38.230Z,16.40
2019-05-26T08:04:07.044Z,16.60
2019-05-26T08:06:56.987Z,16.40
2019-05-26T08:09:25.781Z,16.30
2019-05-26T08:11:54.679Z,16.50
2019-05-26T08:14:23.543Z,16.60
2019-05-26T08:17:01.440Z,16.50
2019-05-26T08:19:30.269Z,16.50
2019-05-26T08:25:02.556Z,16.40
2019-05-26T08:27:31.354Z,16.20
2019-05-26T08:30:01.263Z,16.20
2019-05-26T08:32:30.096Z,16.30
2019-05-26T08:34:59.091Z,16.20
2019-05-26T08:37:27.981Z,16.20
2019-05-26T08:39:58.452Z,16.20
2019-05-26T08:42:43.595Z,16.20
2019-05-26T08:45:01.156Z,16.20
2019-05-26T08:47:30.087Z,16.30
2019-05-26T08:58:21.530Z,16.60
2019-05-26T09:00:50.324Z,16.70
2019-05-26T09:03:31.338Z,16.70
2019-05-26T09:06:00.063Z,16.80
2019-05-26T09:08:30.924Z,16.70
2019-05-26T09:10:59.728Z,16.80
2019-05-26T09:13:55.490Z,16.90
2019-05-26T09:16:24.341Z,16.90
2019-05-26T09:21:55.471Z,16.70
2019-05-26T09:24:24.281Z,16.60
2019-05-26T09:27:04.390Z,16.60
2019-05-26T09:29:33.206Z,16.60
2019-05-26T09:32:17.568Z,16.80
2019-05-26T09:34:46.413Z,16.90
2019-05-26T09:37:15.293Z,17.10
2019-05-26T09:39:44.152Z,17.20
2019-05-26T09:42:37.104Z,17.50
2019-05-26T09:45:07.938Z,17.90
2019-05-26T09:51:05.385Z,18.30
2019-05-26T09:53:34.185Z,18.50
2019-05-26T09:56:02.913Z,18.70
2019-05-26T09:58:31.713Z,18.60
2019-05-26T10:01:00.440Z,18.80
2019-05-26T10:03:29.237Z,18.80
2019-05-26T10:05:58.017Z,18.90
2019-05-26T10:08:26.674Z,19.10
2019-05-26T10:10:55.456Z,19.20
2019-05-26T10:13:31.679Z,19.30
2019-05-26T10:15:54.791Z,19.40
2019-05-26T10:18:23.565Z,19.20
2019-05-26T10:20:55.478Z,18.90
2019-05-26T10:23:26.329Z,18.90
2019-05-26T10:25:55.071Z,18.70
2019-05-26T10:28:23.873Z,18.60
2019-05-26T10:30:52.669Z,18.60
2019-05-26T10:33:21.545Z,18.70
2019-05-26T10:35:50.343Z,18.80
2019-05-26T10:38:19.145Z,18.90
2019-05-26T10:40:47.939Z,19.10
2019-05-26T10:43:16.708Z,19.00
2019-05-26T10:45:45.523Z,19.20
2019-05-26T10:48:14.207Z,19.30
2019-05-26T10:50:42.997Z,19.30
2019-05-26T10:53:11.774Z,19.50
2019-05-26T10:55:40.608Z,19.70
2019-05-26T10:58:09.375Z,19.80
2019-05-26T11:00:38.070Z,19.80
2019-05-26T11:03:06.880Z,20.10
2019-05-26T11:05:35.661Z,20.30
2019-05-26T11:08:04.448Z,20.30
2019-05-26T11:10:33.231Z,20.30
2019-05-26T11:13:02.025Z,20.50
2019-05-26T11:15:30.820Z,20.80
2019-05-26T11:17:59.525Z,20.90
2019-05-26T11:20:28.317Z,20.90
2019-05-26T11:22:57.022Z,21.20
2019-05-26T11:25:25.825Z,21.10
2019-05-26T11:27:54.592Z,20.90
2019-05-26T11:30:23.697Z,21.10
2019-05-26T11:32:52.329Z,21.20
2019-05-26T11:35:21.143Z,21.40
2019-05-26T11:37:49.922Z,21.50
2019-05-26T11:40:18.810Z,21.60
2019-05-26T11:42:47.539Z,21.70
2019-05-26T11:45:16.687Z,21.70
2019-05-26T11:47:45.335Z,21.60
2019-05-26T11:50:15.397Z,21.50
2019-05-26T11:52:44.196Z,21.70
2019-05-26T11:55:13.273Z,21.60
2019-05-26T11:57:42.152Z,21.10
2019-05-26T12:00:14.257Z,20.90
2019-05-26T12:02:43.978Z,20.80
2019-05-26T12:05:17.092Z,20.90
2019-05-26T12:07:43.632Z,21.00
2019-05-26T12:10:14.071Z,21.40
2019-05-26T12:12:43.317Z,21.50
2019-05-26T12:15:15.649Z,21.50
2019-05-26T12:17:44.355Z,21.20
2019-05-26T12:20:13.345Z,21.20
2019-05-26T12:22:42.464Z,21.40
2019-05-26T12:25:11.664Z,21.60
2019-05-26T12:27:40.436Z,21.90
2019-05-26T12:30:10.604Z,22.30
2019-05-26T12:32:39.375Z,22.40
2019-05-26T12:35:08.762Z,22.50
2019-05-26T12:37:37.524Z,22.30
2019-05-26T12:40:09.557Z,22.10
2019-05-26T12:42:38.326Z,21.80
2019-05-26T12:45:10.790Z,21.60
2019-05-26T12:47:39.513Z,21.40
2019-05-26T12:50:09.190Z,21.50
2019-05-26T12:52:38.266Z,21.50
2019-05-26T12:55:09.408Z,21.60
2019-05-26T12:57:38.101Z,21.90
2019-05-26T13:00:07.971Z,21.90
2019-05-26T13:02:36.773Z,22.00
2019-05-26T13:08:18.248Z,22.10
2019-05-26T13:10:47.134Z,22.30
2019-05-26T13:13:37.066Z,22.40
2019-05-26T13:16:06.166Z,22.30
2019-05-26T13:18:41.864Z,22.10
2019-05-26T13:21:10.633Z,22.10
2019-05-26T13:23:54.434Z,22.20
2019-05-26T13:26:23.252Z,22.30
2019-05-26T13:28:56.395Z,22.40
2019-05-26T13:31:56.486Z,22.40
2019-05-26T13:34:25.309Z,22.40
2019-05-26T13:36:54.137Z,22.50
2019-05-26T13:39:23.049Z,22.50
2019-05-26T13:42:18.308Z,22.40
2019-05-26T13:44:47.230Z,22.30
2019-05-26T13:47:25.677Z,22.10
2019-05-26T13:49:47.618Z,22.40
2019-05-26T13:52:43.994Z,22.70
2019-05-26T13:55:12.927Z,22.90
2019-05-26T13:57:53.867Z,23.20
2019-05-26T14:00:23.635Z,23.20
2019-05-26T14:02:55.578Z,22.60
2019-05-26T14:05:24.420Z,22.90
2019-05-26T14:07:54.238Z,23.00
2019-05-26T14:10:34.256Z,23.00
2019-05-26T14:13:08.272Z,23.10
2019-05-26T14:15:38.993Z,23.10
2019-05-26T14:18:10.515Z,23.10
2019-05-26T14:20:42.365Z,23.30
2019-05-26T14:23:16.942Z,23.00
2019-05-26T14:25:45.721Z,22.80
2019-05-26T14:28:18.313Z,22.60
2019-05-26T14:30:47.109Z,22.60
2019-05-26T14:33:15.992Z,22.50
2019-05-26T14:35:48.877Z,22.50
2019-05-26T14:38:17.687Z,22.20
2019-05-26T14:40:51.722Z,22.30
2019-05-26T14:43:20.767Z,22.20
2019-05-26T14:46:01.621Z,22.00
2019-05-26T14:48:30.428Z,22.00
2019-05-26T14:50:59.244Z,22.10
2019-05-26T14:53:28.066Z,22.10
2019-05-26T14:55:57.971Z,22.10
2019-05-26T14:58:26.751Z,21.90
2019-05-26T15:00:56.785Z,21.80
2019-05-26T15:03:25.614Z,21.60
2019-05-26T15:06:05.361Z,21.60
2019-05-26T15:08:24.965Z,21.60
2019-05-26T15:11:09.159Z,21.80
2019-05-26T15:13:37.943Z,21.90
2019-05-26T15:16:10.293Z,21.80
2019-05-26T15:18:38.258Z,21.70
2019-05-26T15:21:18.248Z,21.50
2019-05-26T15:23:46.807Z,21.40
2019-05-26T15:26:22.941Z,21.40
2019-05-26T15:28:51.904Z,21.30
2019-05-26T15:31:20.928Z,21.20
2019-05-26T15:33:50.712Z,21.20
2019-05-26T15:36:19.606Z,21.20
2019-05-26T15:38:53.558Z,21.10
2019-05-26T15:41:22.353Z,21.10
2019-05-26T15:43:54.691Z,21.00
2019-05-26T15:46:25.570Z,21.10
2019-05-26T15:48:55.137Z,21.20
2019-05-26T15:51:23.915Z,21.20
2019-05-26T15:53:52.744Z,21.30
2019-05-26T15:56:21.527Z,21.30
2019-05-26T15:58:59.626Z,21.50
2019-05-26T16:01:28.397Z,21.60
2019-05-26T16:04:01.544Z,21.60
2019-05-26T16:06:30.345Z,21.60
2019-05-26T16:09:11.328Z,21.60
2019-05-26T16:11:43.294Z,21.60
2019-05-26T16:14:10.568Z,21.30
2019-05-26T16:16:41.729Z,21.10
2019-05-26T16:19:13.075Z,20.90
2019-05-26T16:21:41.933Z,20.80
2019-05-26T16:24:16.895Z,20.60
2019-05-26T16:26:45.820Z,20.50
2019-05-26T16:29:15.810Z,20.50
2019-05-26T16:31:44.747Z,20.50
2019-05-26T16:34:13.604Z,20.40
2019-05-26T16:36:42.463Z,20.50
2019-05-26T16:39:11.332Z,20.50
2019-05-26T16:41:40.151Z,20.40
2019-05-26T16:44:09.090Z,20.40
2019-05-26T16:46:37.975Z,20.40
2019-05-26T16:49:10.059Z,20.40
2019-05-26T16:51:38.831Z,20.40
2019-05-26T16:54:07.659Z,20.40
2019-05-26T16:56:36.525Z,20.40
2019-05-26T16:59:05.401Z,20.30
2019-05-26T17:01:35.835Z,20.30
2019-05-26T17:04:04.769Z,20.30
2019-05-26T17:06:33.637Z,20.30
2019-05-26T17:09:02.578Z,20.30
2019-05-26T17:11:31.519Z,20.20
2019-05-26T17:14:01.977Z,20.20
2019-05-26T17:16:30.855Z,20.10
2019-05-26T17:19:05.804Z,20.10
2019-05-26T17:21:34.632Z,20.20
2019-05-26T17:24:12.558Z,20.20
2019-05-26T17:26:41.594Z,20.20
2019-05-26T17:29:12.593Z,20.20
2019-05-26T17:31:41.570Z,20.20
2019-05-26T17:34:19.767Z,20.30
2019-05-26T17:36:48.600Z,20.30
2019-05-26T17:39:20.527Z,20.40
2019-05-26T17:41:49.345Z,20.40
2019-05-26T17:44:28.511Z,20.40
2019-05-26T17:46:57.258Z,20.30
2019-05-26T17:49:26.068Z,20.30
2019-05-26T17:51:54.882Z,20.30
2019-05-26T17:54:24.806Z,20.30
2019-05-26T17:56:53.574Z,20.20
2019-05-26T17:59:26.940Z,20.20
2019-05-26T18:01:58.441Z,20.20
2019-05-26T18:04:34.668Z,20.10
2019-05-26T18:07:04.010Z,20.10
2019-05-26T18:09:44.550Z,20.10
2019-05-26T18:12:11.858Z,20.10
2019-05-26T18:14:40.728Z,20.10
2019-05-26T18:17:09.552Z,20.00
2019-05-26T18:19:38.313Z,20.00
2019-05-26T18:22:07.126Z,20.00
2019-05-26T18:24:35.929Z,20.00
2019-05-26T18:27:04.847Z,20.00
2019-05-26T18:29:33.733Z,20.00
2019-05-26T18:32:03.232Z,19.90
2019-05-26T18:34:38.668Z,19.90
2019-05-26T18:37:07.501Z,19.90
2019-05-26T18:39:36.328Z,19.90
2019-05-26T18:42:17.604Z,19.90
2019-05-26T18:44:46.380Z,19.90
2019-05-26T18:47:24.700Z,19.80
2019-05-26T18:49:55.115Z,19.80
2019-05-26T18:52:32.006Z,19.80
2019-05-26T18:55:00.836Z,19.70
2019-05-26T18:57:34.003Z,19.70
2019-05-26T19:00:08.849Z,19.70
2019-05-26T19:02:37.674Z,19.60
2019-05-26T19:05:08.505Z,19.60
2019-05-26T19:07:37.420Z,19.60
2019-05-26T19:10:09.552Z,19.60
2019-05-26T19:12:38.436Z,19.60
2019-05-26T19:15:13.987Z,19.50
2019-05-26T19:17:42.840Z,19.50
2019-05-26T19:20:32.648Z,19.50
2019-05-26T19:23:02.323Z,19.40
2019-05-26T19:25:37.744Z,19.40
2019-05-26T19:28:06.586Z,19.40
2019-05-26T19:30:39.473Z,19.40
2019-05-26T19:33:08.373Z,19.40
2019-05-26T19:35:40.381Z,19.30
2019-05-26T19:38:09.238Z,19.30
2019-05-26T19:40:39.283Z,19.30
2019-05-26T19:43:08.153Z,19.30
2019-05-26T19:45:37.116Z,19.20
2019-05-26T19:48:05.955Z,19.20
2019-05-26T19:50:37.019Z,19.20
2019-05-26T19:53:05.806Z,19.10
2019-05-26T19:55:36.776Z,19.10
2019-05-26T19:58:05.630Z,19.00
2019-05-26T20:00:41.885Z,19.00
2019-05-26T20:03:13.605Z,19.00
2019-05-26T20:05:57.563Z,19.00
2019-05-26T20:08:26.387Z,19.00
2019-05-26T20:10:55.215Z,19.00
2019-05-26T20:13:24.241Z,18.90
2019-05-26T20:15:56.294Z,18.90
2019-05-26T20:18:25.159Z,18.90
2019-05-26T20:21:12.291Z,18.80
2019-05-26T20:23:41.082Z,18.80
2019-05-26T20:26:22.103Z,18.80
2019-05-26T20:28:50.959Z,18.80
2019-05-26T20:31:20.963Z,18.80
2019-05-26T20:33:49.828Z,18.80
2019-05-26T20:36:19.709Z,18.80
2019-05-26T20:38:48.594Z,18.70
2019-05-26T20:41:17.488Z,18.70
2019-05-26T20:46:46.287Z,18.70
2019-05-26T20:49:15.069Z,18.70
2019-05-26T20:51:49.392Z,18.60
2019-05-26T20:54:18.205Z,18.60
2019-05-26T20:56:53.490Z,18.70
2019-05-26T20:59:22.289Z,18.70
2019-05-26T21:01:51.148Z,18.70
2019-05-26T21:04:20.054Z,18.70
2019-05-26T21:06:48.905Z,18.70
2019-05-26T21:09:17.777Z,18.60
2019-05-26T21:11:46.673Z,18.60
2019-05-26T21:14:15.577Z,18.60
2019-05-26T21:16:44.478Z,18.60
2019-05-26T21:19:16.466Z,18.60
2019-05-26T21:21:45.269Z,18.50
2019-05-26T21:24:17.508Z,18.50
2019-05-26T21:26:46.384Z,18.50
2019-05-26T21:29:17.405Z,18.50
2019-05-26T21:31:46.282Z,18.50
2019-05-26T21:34:28.370Z,18.40
2019-05-26T21:36:58.457Z,18.40
2019-05-26T21:39:35.876Z,18.40
2019-05-26T21:42:04.701Z,18.40
2019-05-26T21:44:34.714Z,18.40
2019-05-26T21:47:03.511Z,18.30
2019-05-26T21:49:38.434Z,18.30
2019-05-26T21:52:07.235Z,18.30
2019-05-26T21:54:36.540Z,18.30
2019-05-26T21:57:05.346Z,18.30
2019-05-26T21:59:34.275Z,18.30
2019-05-26T22:02:03.292Z,18.30
2019-05-26T22:04:38.226Z,18.30
2019-05-26T22:07:07.195Z,18.30
2019-05-26T22:09:37.145Z,18.30
2019-05-26T22:12:07.179Z,18.30
2019-05-26T22:14:53.439Z,18.30
2019-05-26T22:17:22.310Z,18.30
2019-05-26T22:20:09.954Z,18.30
2019-05-26T22:22:38.869Z,18.30
2019-05-26T22:25:07.911Z,18.30
2019-05-26T22:27:36.747Z,18.30
2019-05-26T22:30:09.362Z,18.20
2019-05-26T22:32:38.181Z,18.20
2019-05-26T22:35:10.107Z,18.20
2019-05-26T22:37:38.917Z,18.20
2019-05-26T22:40:11.471Z,18.20
2019-05-26T22:42:40.374Z,18.20
2019-05-26T22:45:18.701Z,18.20
2019-05-26T22:47:47.541Z,18.10
2019-05-26T22:50:31.740Z,18.20
2019-05-26T22:53:00.568Z,18.10
2019-05-26T22:55:29.419Z,18.10
2019-05-26T22:57:58.333Z,18.10
2019-05-26T23:00:30.653Z,18.10
2019-05-26T23:02:59.562Z,18.10
2019-05-26T23:05:37.984Z,18.10
2019-05-26T23:08:06.923Z,18.00
2019-05-26T23:10:54.993Z,18.00
2019-05-26T23:13:23.815Z,18.10
2019-05-26T23:15:52.706Z,18.00
2019-05-26T23:18:23.739Z,18.00
2019-05-26T23:20:52.544Z,18.00
2019-05-26T23:23:21.373Z,18.00
2019-05-26T23:25:54.412Z,18.00
2019-05-26T23:28:23.225Z,17.90
2019-05-26T23:30:52.147Z,17.90
2019-05-26T23:33:21.010Z,17.90
2019-05-26T23:35:58.661Z,17.80
2019-05-26T23:38:27.537Z,17.80
2019-05-26T23:40:56.402Z,17.80
2019-05-26T23:43:25.266Z,17.70
2019-05-26T23:45:58.179Z,17.70
2019-05-26T23:48:27.025Z,17.70
2019-05-26T23:51:10.384Z,17.70
2019-05-26T23:53:39.219Z,17.70
2019-05-26T23:56:13.465Z,17.70
2019-05-26T23:58:42.350Z,17.70
